sensor_id;sensor_type;location;lat;lon;timestamp;pressure;altitude;pressure_sealevel;temperature;humidity
10482;BME280;5288;42.334;23.876;2023-04-25T00:00:22;56280.66;;;-140.56;70.59
10482;BME280;5288;42.334;23.876;2023-04-25T00:02:49;56290.53;;;-140.56;71.26
10482;BME280;5288;42.334;23.876;2023-04-25T00:05:16;56300.44;;;-140.56;71.55
10482;BME280;5288;42.334;23.876;2023-04-25T00:07:46;56300.44;;;-140.56;71.37
10482;BME280;5288;42.334;23.876;2023-04-25T00:10:13;56274.72;;;-140.56;72.01
10482;BME280;5288;42.334;23.876;2023-04-25T00:12:40;56284.63;;;-140.56;72.58
10482;BME280;5288;42.334;23.876;2023-04-25T00:15:08;56318.22;;;-140.56;74.25
10482;BME280;5288;42.334;23.876;2023-04-25T00:17:36;56294.50;;;-140.56;75.58
10482;BME280;5288;42.334;23.876;2023-04-25T00:20:04;56334.03;;;-140.56;76.67
10482;BME280;5288;42.334;23.876;2023-04-25T00:22:34;56308.34;;;-140.56;77.73
10482;BME280;5288;42.334;23.876;2023-04-25T00:25:04;56332.03;;;-140.56;78.24
10482;BME280;5288;42.334;23.876;2023-04-25T00:27:32;56302.41;;;-140.56;78.69
10482;BME280;5288;42.334;23.876;2023-04-25T00:29:59;56341.94;;;-140.56;79.19
10482;BME280;5288;42.334;23.876;2023-04-25T00:32:29;56337.97;;;-140.56;79.26
10482;BME280;5288;42.334;23.876;2023-04-25T00:34:56;56341.94;;;-140.56;79.89
10482;BME280;5288;42.334;23.876;2023-04-25T00:37:23;56324.13;;;-140.56;80.50
10482;BME280;5288;42.334;23.876;2023-04-25T00:39:50;56290.53;;;-140.56;80.15
10482;BME280;5288;42.334;23.876;2023-04-25T00:42:20;56310.31;;;-140.56;79.35
10482;BME280;5288;42.334;23.876;2023-04-25T00:44:47;56286.59;;;-140.56;77.75
10482;BME280;5288;42.334;23.876;2023-04-25T00:47:15;56306.34;;;-140.56;76.80
10482;BME280;5288;42.334;23.876;2023-04-25T00:49:42;56330.06;;;-140.56;76.52
10482;BME280;5288;42.334;23.876;2023-04-25T00:52:09;56298.44;;;-140.56;76.46
10482;BME280;5288;42.334;23.876;2023-04-25T00:54:37;56288.56;;;-140.56;76.47
10482;BME280;5288;42.334;23.876;2023-04-25T00:57:04;56298.44;;;-140.56;76.04
10482;BME280;5288;42.334;23.876;2023-04-25T00:59:33;56249.03;;;-140.56;75.02
10482;BME280;5288;42.334;23.876;2023-04-25T01:02:01;56302.41;;;-140.56;73.99
10482;BME280;5288;42.334;23.876;2023-04-25T01:04:28;56268.81;;;-140.56;73.48
10482;BME280;5288;42.334;23.876;2023-04-25T01:06:55;56290.53;;;-140.56;73.35
10482;BME280;5288;42.334;23.876;2023-04-25T01:09:22;56322.16;;;-140.56;73.70
10482;BME280;5288;42.334;23.876;2023-04-25T01:11:49;56302.41;;;-140.56;74.37
10482;BME280;5288;42.334;23.876;2023-04-25T01:14:16;56306.34;;;-140.56;75.07
10482;BME280;5288;42.334;23.876;2023-04-25T01:16:45;56306.34;;;-140.56;76.14
10482;BME280;5288;42.334;23.876;2023-04-25T01:19:16;56306.34;;;-140.56;76.34
10482;BME280;5288;42.334;23.876;2023-04-25T01:21:45;56308.34;;;-140.56;76.54
10482;BME280;5288;42.334;23.876;2023-04-25T01:24:12;56324.13;;;-140.56;77.55
10482;BME280;5288;42.334;23.876;2023-04-25T01:26:40;56292.53;;;-140.56;77.58
10482;BME280;5288;42.334;23.876;2023-04-25T01:29:10;56318.22;;;-140.56;77.03
10482;BME280;5288;42.334;23.876;2023-04-25T01:31:37;56316.25;;;-140.56;76.14
10482;BME280;5288;42.334;23.876;2023-04-25T01:34:05;56337.97;;;-140.56;75.91
10482;BME280;5288;42.334;23.876;2023-04-25T01:36:32;56310.31;;;-140.56;76.14
10482;BME280;5288;42.334;23.876;2023-04-25T01:39:00;56337.97;;;-140.56;75.67
10482;BME280;5288;42.334;23.876;2023-04-25T01:41:27;56284.63;;;-140.56;74.90
10482;BME280;5288;42.334;23.876;2023-04-25T01:43:55;56320.19;;;-140.56;74.12
10482;BME280;5288;42.334;23.876;2023-04-25T01:46:22;56365.66;;;-140.56;75.47
10482;BME280;5288;42.334;23.876;2023-04-25T01:48:49;56284.63;;;-140.56;75.82
10482;BME280;5288;42.334;23.876;2023-04-25T01:51:16;56322.16;;;-140.56;74.62
10482;BME280;5288;42.334;23.876;2023-04-25T01:53:43;56312.28;;;-140.56;74.52
10482;BME280;5288;42.334;23.876;2023-04-25T01:56:12;56334.03;;;-140.56;74.47
10482;BME280;5288;42.334;23.876;2023-04-25T01:58:39;56308.34;;;-140.56;74.48
10482;BME280;5288;42.334;23.876;2023-04-25T02:01:06;56274.72;;;-140.56;73.97
10482;BME280;5288;42.334;23.876;2023-04-25T02:03:34;56290.53;;;-140.56;73.38
10482;BME280;5288;42.334;23.876;2023-04-25T02:06:01;56298.44;;;-140.56;73.08
10482;BME280;5288;42.334;23.876;2023-04-25T02:08:27;56324.13;;;-140.56;73.05
10482;BME280;5288;42.334;23.876;2023-04-25T02:10:55;56290.53;;;-140.56;73.22
10482;BME280;5288;42.334;23.876;2023-04-25T02:13:24;56288.56;;;-140.56;71.94
10482;BME280;5288;42.334;23.876;2023-04-25T02:15:51;56286.59;;;-140.56;71.22
10482;BME280;5288;42.334;23.876;2023-04-25T02:18:18;56302.41;;;-140.56;70.30
10482;BME280;5288;42.334;23.876;2023-04-25T02:20:46;56314.25;;;-140.56;70.53
10482;BME280;5288;42.334;23.876;2023-04-25T02:23:13;56282.63;;;-140.56;71.00
10482;BME280;5288;42.334;23.876;2023-04-25T02:25:41;56266.81;;;-140.56;71.41
10482;BME280;5288;42.334;23.876;2023-04-25T02:28:08;56286.59;;;-140.56;71.21
10482;BME280;5288;42.334;23.876;2023-04-25T02:30:37;56294.50;;;-140.56;70.81
10482;BME280;5288;42.334;23.876;2023-04-25T02:33:04;56320.19;;;-140.56;71.12
10482;BME280;5288;42.334;23.876;2023-04-25T02:35:31;56262.88;;;-140.56;70.84
10482;BME280;5288;42.334;23.876;2023-04-25T02:37:58;56284.63;;;-140.56;70.91
10482;BME280;5288;42.334;23.876;2023-04-25T02:40:25;56304.38;;;-140.56;71.16
10482;BME280;5288;42.334;23.876;2023-04-25T02:42:52;56278.69;;;-140.56;71.93
10482;BME280;5288;42.334;23.876;2023-04-25T02:45:19;56274.72;;;-140.56;72.13
10482;BME280;5288;42.334;23.876;2023-04-25T02:47:48;56276.72;;;-140.56;72.21
10482;BME280;5288;42.334;23.876;2023-04-25T02:50:14;56298.44;;;-140.56;71.91
10482;BME280;5288;42.334;23.876;2023-04-25T02:52:41;56320.19;;;-140.56;71.75
10482;BME280;5288;42.334;23.876;2023-04-25T02:55:09;56294.50;;;-140.56;71.19
10482;BME280;5288;42.334;23.876;2023-04-25T02:57:36;56308.34;;;-140.56;71.53
10482;BME280;5288;42.334;23.876;2023-04-25T03:00:04;56290.53;;;-140.56;70.94
10482;BME280;5288;42.334;23.876;2023-04-25T03:02:32;56308.34;;;-140.56;70.44
10482;BME280;5288;42.334;23.876;2023-04-25T03:05:01;56302.41;;;-140.56;69.92
10482;BME280;5288;42.334;23.876;2023-04-25T03:07:28;56286.59;;;-140.56;70.56
10482;BME280;5288;42.334;23.876;2023-04-25T03:09:56;56318.22;;;-140.56;70.50
10482;BME280;5288;42.334;23.876;2023-04-25T03:12:23;56310.31;;;-140.56;70.56
10482;BME280;5288;42.334;23.876;2023-04-25T03:14:49;56247.06;;;-140.56;70.03
10482;BME280;5288;42.334;23.876;2023-04-25T03:17:17;56282.63;;;-140.56;69.54
10482;BME280;5288;42.334;23.876;2023-04-25T03:19:44;56336.00;;;-140.56;70.16
10482;BME280;5288;42.334;23.876;2023-04-25T03:22:12;56306.34;;;-140.56;71.68
10482;BME280;5288;42.334;23.876;2023-04-25T03:24:39;56336.00;;;-140.56;72.25
10482;BME280;5288;42.334;23.876;2023-04-25T03:27:07;56314.25;;;-140.56;72.49
10482;BME280;5288;42.334;23.876;2023-04-25T03:29:34;56316.25;;;-140.56;72.37
10482;BME280;5288;42.334;23.876;2023-04-25T03:32:01;56345.88;;;-140.56;72.75
10482;BME280;5288;42.334;23.876;2023-04-25T03:34:28;56324.13;;;-140.56;73.37
10482;BME280;5288;42.334;23.876;2023-04-25T03:36:55;56308.34;;;-140.56;73.77
10482;BME280;5288;42.334;23.876;2023-04-25T03:39:23;56278.69;;;-140.56;73.88
10482;BME280;5288;42.334;23.876;2023-04-25T03:41:50;56310.31;;;-140.56;71.47
10482;BME280;5288;42.334;23.876;2023-04-25T03:44:17;56351.81;;;-140.56;71.66
10482;BME280;5288;42.334;23.876;2023-04-25T03:46:47;56345.88;;;-140.56;72.15
10482;BME280;5288;42.334;23.876;2023-04-25T03:49:16;56343.91;;;-140.56;72.88
10482;BME280;5288;42.334;23.876;2023-04-25T03:51:43;56304.38;;;-140.56;72.28
10482;BME280;5288;42.334;23.876;2023-04-25T03:54:10;56337.97;;;-140.56;72.88
10482;BME280;5288;42.334;23.876;2023-04-25T03:56:38;56322.16;;;-140.56;72.75
10482;BME280;5288;42.334;23.876;2023-04-25T03:59:05;56363.66;;;-140.56;73.92
10482;BME280;5288;42.334;23.876;2023-04-25T04:01:33;56286.59;;;-140.56;77.20
10482;BME280;5288;42.334;23.876;2023-04-25T04:04:00;56286.59;;;-140.56;78.35
10482;BME280;5288;42.334;23.876;2023-04-25T04:06:27;56272.75;;;-140.56;78.30
10482;BME280;5288;42.334;23.876;2023-04-25T04:08:55;56302.41;;;-140.56;79.09
10482;BME280;5288;42.334;23.876;2023-04-25T04:11:22;56357.75;;;-140.56;77.54
10482;BME280;5288;42.334;23.876;2023-04-25T04:13:50;56292.53;;;-140.56;75.18
10482;BME280;5288;42.334;23.876;2023-04-25T04:16:17;56290.53;;;-140.56;75.09
10482;BME280;5288;42.334;23.876;2023-04-25T04:18:45;56357.75;;;-140.56;71.10
10482;BME280;5288;42.334;23.876;2023-04-25T04:21:12;56353.78;;;-140.56;73.15
10482;BME280;5288;42.334;23.876;2023-04-25T04:23:39;56341.94;;;-140.56;73.59
10482;BME280;5288;42.334;23.876;2023-04-25T04:26:06;56361.69;;;-140.56;74.06
10482;BME280;5288;42.334;23.876;2023-04-25T04:28:34;56314.25;;;-140.56;75.35
10482;BME280;5288;42.334;23.876;2023-04-25T04:31:02;56330.06;;;-140.56;72.56
10482;BME280;5288;42.334;23.876;2023-04-25T04:33:29;56316.25;;;-140.56;73.50
10482;BME280;5288;42.334;23.876;2023-04-25T04:35:57;56337.97;;;-140.56;74.83
10482;BME280;5288;42.334;23.876;2023-04-25T04:38:24;56302.41;;;-140.56;76.88
10482;BME280;5288;42.334;23.876;2023-04-25T04:40:51;56320.19;;;-140.56;77.00
10482;BME280;5288;42.334;23.876;2023-04-25T04:43:19;56337.97;;;-140.56;75.33
10482;BME280;5288;42.334;23.876;2023-04-25T04:45:46;56314.25;;;-140.56;73.76
10482;BME280;5288;42.334;23.876;2023-04-25T04:48:14;56322.16;;;-140.56;74.10
10482;BME280;5288;42.334;23.876;2023-04-25T04:50:42;56351.81;;;-140.56;73.82
10482;BME280;5288;42.334;23.876;2023-04-25T04:53:10;56292.53;;;-140.56;74.55
10482;BME280;5288;42.334;23.876;2023-04-25T04:55:37;56322.16;;;-140.56;73.80
10482;BME280;5288;42.334;23.876;2023-04-25T04:58:06;56322.16;;;-140.56;73.14
10482;BME280;5288;42.334;23.876;2023-04-25T05:00:33;56361.69;;;-140.56;73.86
10482;BME280;5288;42.334;23.876;2023-04-25T05:03:01;56316.25;;;-140.56;75.12
10482;BME280;5288;42.334;23.876;2023-04-25T05:05:29;56304.38;;;-140.56;76.31
10482;BME280;5288;42.334;23.876;2023-04-25T05:07:56;56320.19;;;-140.56;76.23
10482;BME280;5288;42.334;23.876;2023-04-25T05:10:23;56306.34;;;-140.56;75.64
10482;BME280;5288;42.334;23.876;2023-04-25T05:12:50;56343.91;;;-140.56;75.17
10482;BME280;5288;42.334;23.876;2023-04-25T05:15:17;56310.31;;;-140.56;76.54
10482;BME280;5288;42.334;23.876;2023-04-25T05:17:45;56298.44;;;-140.56;77.16
10482;BME280;5288;42.334;23.876;2023-04-25T05:20:12;56312.28;;;-140.56;74.55
10482;BME280;5288;42.334;23.876;2023-04-25T05:22:41;56284.63;;;-140.56;75.29
10482;BME280;5288;42.334;23.876;2023-04-25T05:25:08;56286.59;;;-140.56;76.25
10482;BME280;5288;42.334;23.876;2023-04-25T05:27:35;56280.66;;;-140.56;76.40
10482;BME280;5288;42.334;23.876;2023-04-25T05:30:03;56296.47;;;-140.56;74.99
10482;BME280;5288;42.334;23.876;2023-04-25T05:32:31;56310.31;;;-140.56;74.86
10482;BME280;5288;42.334;23.876;2023-04-25T05:34:58;56298.44;;;-140.56;75.74
10482;BME280;5288;42.334;23.876;2023-04-25T05:37:25;56290.53;;;-140.56;75.74
10482;BME280;5288;42.334;23.876;2023-04-25T05:39:53;56304.38;;;-140.56;76.61
10482;BME280;5288;42.334;23.876;2023-04-25T05:42:20;56310.31;;;-140.56;77.84
10482;BME280;5288;42.334;23.876;2023-04-25T05:44:47;56290.53;;;-140.56;76.56
10482;BME280;5288;42.334;23.876;2023-04-25T05:47:14;56312.28;;;-140.56;75.99
10482;BME280;5288;42.334;23.876;2023-04-25T05:49:42;56274.72;;;-140.56;75.80
10482;BME280;5288;42.334;23.876;2023-04-25T05:52:09;56280.66;;;-140.56;76.30
10482;BME280;5288;42.334;23.876;2023-04-25T05:54:36;56290.53;;;-140.56;77.12
10482;BME280;5288;42.334;23.876;2023-04-25T05:57:04;56292.53;;;-140.56;76.32
10482;BME280;5288;42.334;23.876;2023-04-25T05:59:31;56298.44;;;-140.56;75.29
10482;BME280;5288;42.334;23.876;2023-04-25T06:01:58;56282.63;;;-140.56;74.50
10482;BME280;5288;42.334;23.876;2023-04-25T06:04:26;56270.78;;;-140.56;74.63
10482;BME280;5288;42.334;23.876;2023-04-25T06:06:53;56290.53;;;-140.56;73.84
10482;BME280;5288;42.334;23.876;2023-04-25T06:09:20;56294.50;;;-140.56;73.81
10482;BME280;5288;42.334;23.876;2023-04-25T06:11:47;56286.59;;;-140.56;73.84
10482;BME280;5288;42.334;23.876;2023-04-25T06:14:15;56270.78;;;-140.56;73.64
10482;BME280;5288;42.334;23.876;2023-04-25T06:16:42;56300.44;;;-140.56;72.65
10482;BME280;5288;42.334;23.876;2023-04-25T06:19:09;56280.66;;;-140.56;72.63
10482;BME280;5288;42.334;23.876;2023-04-25T06:21:36;56296.47;;;-140.56;72.38
10482;BME280;5288;42.334;23.876;2023-04-25T06:24:03;56260.91;;;-140.56;72.03
10482;BME280;5288;42.334;23.876;2023-04-25T06:26:30;56282.63;;;-140.56;71.93
10482;BME280;5288;42.334;23.876;2023-04-25T06:28:57;56316.25;;;-140.56;71.23
10482;BME280;5288;42.334;23.876;2023-04-25T06:31:26;56280.66;;;-140.56;71.03
10482;BME280;5288;42.334;23.876;2023-04-25T06:33:54;56268.81;;;-140.56;70.91
10482;BME280;5288;42.334;23.876;2023-04-25T06:36:21;56286.59;;;-140.56;69.93
10482;BME280;5288;42.334;23.876;2023-04-25T06:38:50;56272.75;;;-140.56;68.90
10482;BME280;5288;42.334;23.876;2023-04-25T06:41:17;56262.88;;;-140.56;69.13
10482;BME280;5288;42.334;23.876;2023-04-25T06:43:45;56286.59;;;-140.56;69.23
10482;BME280;5288;42.334;23.876;2023-04-25T06:46:12;56258.94;;;-140.56;69.65
10482;BME280;5288;42.334;23.876;2023-04-25T06:48:41;56276.72;;;-140.56;69.42
10482;BME280;5288;42.334;23.876;2023-04-25T06:51:08;56262.88;;;-140.56;69.68
10482;BME280;5288;42.334;23.876;2023-04-25T06:53:35;56251.03;;;-140.56;69.75
10482;BME280;5288;42.334;23.876;2023-04-25T06:56:03;56227.31;;;-140.56;69.72
10482;BME280;5288;42.334;23.876;2023-04-25T06:58:30;56286.59;;;-140.56;69.63
10482;BME280;5288;42.334;23.876;2023-04-25T07:00:57;56292.53;;;-140.56;69.93
10482;BME280;5288;42.334;23.876;2023-04-25T07:03:24;56260.91;;;-140.56;71.45
10482;BME280;5288;42.334;23.876;2023-04-25T07:05:53;56247.06;;;-140.56;71.23
10482;BME280;5288;42.334;23.876;2023-04-25T07:08:20;56270.78;;;-140.56;73.17
10482;BME280;5288;42.334;23.876;2023-04-25T07:10:47;56272.75;;;-140.56;75.62
10482;BME280;5288;42.334;23.876;2023-04-25T07:13:14;56288.56;;;-140.56;73.94
10482;BME280;5288;42.334;23.876;2023-04-25T07:15:41;56254.97;;;-140.56;72.30
10482;BME280;5288;42.334;23.876;2023-04-25T07:18:08;56256.94;;;-140.56;70.41
10482;BME280;5288;42.334;23.876;2023-04-25T07:20:36;56266.81;;;-140.56;70.78
10482;BME280;5288;42.334;23.876;2023-04-25T07:23:05;56245.09;;;-140.56;71.88
10482;BME280;5288;42.334;23.876;2023-04-25T07:25:32;56264.84;;;-140.56;71.34
10482;BME280;5288;42.334;23.876;2023-04-25T07:28:00;56292.53;;;-140.56;70.83
10482;BME280;5288;42.334;23.876;2023-04-25T07:30:27;56256.94;;;-140.56;70.71
10482;BME280;5288;42.334;23.876;2023-04-25T07:32:54;56241.13;;;-140.56;70.96
10482;BME280;5288;42.334;23.876;2023-04-25T07:35:21;56245.09;;;-140.56;70.63
10482;BME280;5288;42.334;23.876;2023-04-25T07:37:48;56237.19;;;-140.56;69.42
10482;BME280;5288;42.334;23.876;2023-04-25T07:40:17;56251.03;;;-140.56;69.68
10482;BME280;5288;42.334;23.876;2023-04-25T07:42:44;56239.16;;;-140.56;68.51
10482;BME280;5288;42.334;23.876;2023-04-25T07:45:11;56260.91;;;-140.56;68.05
10482;BME280;5288;42.334;23.876;2023-04-25T07:47:38;56254.97;;;-140.56;67.73
10482;BME280;5288;42.334;23.876;2023-04-25T07:50:06;56233.22;;;-140.56;67.80
10482;BME280;5288;42.334;23.876;2023-04-25T07:52:34;56274.72;;;-140.56;66.13
10482;BME280;5288;42.334;23.876;2023-04-25T07:55:01;56268.81;;;-140.56;65.81
10482;BME280;5288;42.334;23.876;2023-04-25T07:57:30;56253.00;;;-140.56;64.52
10482;BME280;5288;42.334;23.876;2023-04-25T07:59:57;56233.22;;;-140.56;64.45
10482;BME280;5288;42.334;23.876;2023-04-25T08:02:24;56272.75;;;-140.56;65.10
10482;BME280;5288;42.334;23.876;2023-04-25T08:04:53;56233.22;;;-140.56;64.75
10482;BME280;5288;42.334;23.876;2023-04-25T08:07:20;56231.25;;;-140.56;65.41
10482;BME280;5288;42.334;23.876;2023-04-25T08:09:47;56231.25;;;-140.56;64.21
10482;BME280;5288;42.334;23.876;2023-04-25T08:12:14;56227.31;;;-140.56;63.68
10482;BME280;5288;42.334;23.876;2023-04-25T08:14:43;56205.56;;;-140.56;61.84
10482;BME280;5288;42.334;23.876;2023-04-25T08:17:10;56185.81;;;-140.56;61.82
10482;BME280;5288;42.334;23.876;2023-04-25T08:19:37;56233.22;;;-140.56;60.58
10482;BME280;5288;42.334;23.876;2023-04-25T08:22:04;56239.16;;;-140.56;57.79
10482;BME280;5288;42.334;23.876;2023-04-25T08:24:31;56203.59;;;-140.56;56.46
10482;BME280;5288;42.334;23.876;2023-04-25T08:26:58;56199.63;;;-140.56;57.99
10482;BME280;5288;42.334;23.876;2023-04-25T08:29:26;56203.59;;;-140.56;59.44
10482;BME280;5288;42.334;23.876;2023-04-25T08:31:55;56183.81;;;-140.56;56.63
10482;BME280;5288;42.334;23.876;2023-04-25T08:34:22;56171.97;;;-140.56;57.04
10482;BME280;5288;42.334;23.876;2023-04-25T08:36:49;56187.78;;;-140.56;55.24
10482;BME280;5288;42.334;23.876;2023-04-25T08:39:16;56223.34;;;-140.56;55.74
10482;BME280;5288;42.334;23.876;2023-04-25T08:41:43;56217.41;;;-140.56;56.52
10482;BME280;5288;42.334;23.876;2023-04-25T08:44:11;56209.50;;;-140.56;56.38
10482;BME280;5288;42.334;23.876;2023-04-25T08:46:38;56185.81;;;-140.56;55.55
10482;BME280;5288;42.334;23.876;2023-04-25T08:49:08;56173.94;;;-140.56;55.39
10482;BME280;5288;42.334;23.876;2023-04-25T08:51:39;56179.88;;;-140.56;56.10
10482;BME280;5288;42.334;23.876;2023-04-25T08:54:12;56185.81;;;-140.56;55.11
10482;BME280;5288;42.334;23.876;2023-04-25T08:56:42;56197.66;;;-140.56;55.36
10482;BME280;5288;42.334;23.876;2023-04-25T08:59:10;56173.94;;;-140.56;55.03
10482;BME280;5288;42.334;23.876;2023-04-25T09:01:37;56173.94;;;-140.56;54.51
10482;BME280;5288;42.334;23.876;2023-04-25T09:04:06;56130.47;;;-140.56;53.08
10482;BME280;5288;42.334;23.876;2023-04-25T09:06:33;56144.31;;;-140.56;54.29
10482;BME280;5288;42.334;23.876;2023-04-25T09:09:02;56158.13;;;-140.56;50.07
10482;BME280;5288;42.334;23.876;2023-04-25T09:11:31;56193.72;;;-140.56;50.99
10482;BME280;5288;42.334;23.876;2023-04-25T09:14:13;56154.19;;;-140.56;49.46
10482;BME280;5288;42.334;23.876;2023-04-25T09:17:01;56146.28;;;-140.56;50.20
10482;BME280;5288;42.334;23.876;2023-04-25T09:19:32;56142.31;;;-140.56;50.00
10482;BME280;5288;42.334;23.876;2023-04-25T09:22:02;56136.41;;;-140.56;48.37
10482;BME280;5288;42.334;23.876;2023-04-25T09:24:34;56158.13;;;-140.56;49.38
10482;BME280;5288;42.334;23.876;2023-04-25T09:27:05;56150.22;;;-140.56;48.08
10482;BME280;5288;42.334;23.876;2023-04-25T09:29:34;56142.31;;;-140.56;47.46
10482;BME280;5288;42.334;23.876;2023-04-25T09:32:15;56152.22;;;-140.56;45.83
10482;BME280;5288;42.334;23.876;2023-04-25T09:34:46;56144.31;;;-140.56;45.69
10482;BME280;5288;42.334;23.876;2023-04-25T09:37:18;56140.34;;;-140.56;46.29
10482;BME280;5288;42.334;23.876;2023-04-25T09:39:46;56124.53;;;-140.56;45.52
10482;BME280;5288;42.334;23.876;2023-04-25T09:42:14;56134.41;;;-140.56;44.38
10482;BME280;5288;42.334;23.876;2023-04-25T09:44:45;56134.41;;;-140.56;46.72
10482;BME280;5288;42.334;23.876;2023-04-25T09:47:14;56104.78;;;-140.56;45.74
10482;BME280;5288;42.334;23.876;2023-04-25T09:49:43;56092.91;;;-140.56;44.98
10482;BME280;5288;42.334;23.876;2023-04-25T09:52:14;56104.78;;;-140.56;42.88
10482;BME280;5288;42.334;23.876;2023-04-25T09:54:42;56061.31;;;-140.56;43.01
10482;BME280;5288;42.334;23.876;2023-04-25T09:57:14;56096.88;;;-140.56;42.79
10482;BME280;5288;42.334;23.876;2023-04-25T09:59:46;56085.00;;;-140.56;43.36
10482;BME280;5288;42.334;23.876;2023-04-25T10:02:15;56132.44;;;-140.56;41.55
10482;BME280;5288;42.334;23.876;2023-04-25T10:04:45;56144.31;;;-140.56;41.40
10482;BME280;5288;42.334;23.876;2023-04-25T10:07:14;56118.59;;;-140.56;42.06
10482;BME280;5288;42.334;23.876;2023-04-25T10:09:42;56142.31;;;-140.56;42.20
10482;BME280;5288;42.334;23.876;2023-04-25T10:12:11;56104.78;;;-140.56;41.92
10482;BME280;5288;42.334;23.876;2023-04-25T10:14:38;56128.50;;;-140.56;40.08
10482;BME280;5288;42.334;23.876;2023-04-25T10:17:07;56124.53;;;-140.56;42.68
10482;BME280;5288;42.334;23.876;2023-04-25T10:19:37;56104.78;;;-140.56;40.22
10482;BME280;5288;42.334;23.876;2023-04-25T10:22:07;56057.34;;;-140.56;40.71
10482;BME280;5288;42.334;23.876;2023-04-25T10:24:35;56083.03;;;-140.56;40.53
10482;BME280;5288;42.334;23.876;2023-04-25T10:27:03;56085.00;;;-140.56;39.18
10482;BME280;5288;42.334;23.876;2023-04-25T10:29:31;56102.81;;;-140.56;39.47
10482;BME280;5288;42.334;23.876;2023-04-25T10:31:58;56077.09;;;-140.56;41.04
10482;BME280;5288;42.334;23.876;2023-04-25T10:34:38;56045.50;;;-140.56;38.88
10482;BME280;5288;42.334;23.876;2023-04-25T10:37:08;56049.44;;;-140.56;39.04
10482;BME280;5288;42.334;23.876;2023-04-25T10:39:36;56079.09;;;-140.56;38.95
10482;BME280;5288;42.334;23.876;2023-04-25T10:42:04;56085.00;;;-140.56;39.64
10482;BME280;5288;42.334;23.876;2023-04-25T10:44:33;56077.09;;;-140.56;40.14
10482;BME280;5288;42.334;23.876;2023-04-25T10:47:01;56077.09;;;-140.56;38.61
10482;BME280;5288;42.334;23.876;2023-04-25T10:49:30;56083.03;;;-140.56;39.65
10482;BME280;5288;42.334;23.876;2023-04-25T10:52:19;56088.97;;;-140.56;39.84
10482;BME280;5288;42.334;23.876;2023-04-25T10:54:52;56075.13;;;-140.56;39.61
10482;BME280;5288;42.334;23.876;2023-04-25T10:57:36;56092.91;;;-140.56;39.90
10482;BME280;5288;42.334;23.876;2023-04-25T11:00:12;56100.81;;;-140.56;41.81
10482;BME280;5288;42.334;23.876;2023-04-25T11:02:44;56118.59;;;-140.56;41.56
10482;BME280;5288;42.334;23.876;2023-04-25T11:05:22;56088.97;;;-140.56;40.37
10482;BME280;5288;42.334;23.876;2023-04-25T11:07:52;56116.63;;;-140.56;39.08
10482;BME280;5288;42.334;23.876;2023-04-25T11:10:20;56079.09;;;-140.56;39.15
10482;BME280;5288;42.334;23.876;2023-04-25T11:12:51;56055.38;;;-140.56;41.39
10482;BME280;5288;42.334;23.876;2023-04-25T11:15:18;56057.34;;;-140.56;37.55
10482;BME280;5288;42.334;23.876;2023-04-25T11:17:45;56029.69;;;-140.56;40.69
10482;BME280;5288;42.334;23.876;2023-04-25T11:20:13;56035.63;;;-140.56;36.98
10482;BME280;5288;42.334;23.876;2023-04-25T11:22:41;56015.84;;;-140.56;34.39
10482;BME280;5288;42.334;23.876;2023-04-25T11:25:11;56039.56;;;-140.56;34.24
10482;BME280;5288;42.334;23.876;2023-04-25T11:27:39;56035.63;;;-140.56;35.21
10482;BME280;5288;42.334;23.876;2023-04-25T11:30:16;56031.66;;;-140.56;35.85
10482;BME280;5288;42.334;23.876;2023-04-25T11:32:43;56041.53;;;-140.56;35.62
10482;BME280;5288;42.334;23.876;2023-04-25T11:35:11;56037.59;;;-140.56;35.48
10482;BME280;5288;42.334;23.876;2023-04-25T11:37:39;56015.84;;;-140.56;35.65
10482;BME280;5288;42.334;23.876;2023-04-25T11:40:07;56043.50;;;-140.56;35.44
10482;BME280;5288;42.334;23.876;2023-04-25T11:42:38;56011.91;;;-140.56;36.48
10482;BME280;5288;42.334;23.876;2023-04-25T11:45:06;56009.91;;;-140.56;35.95
10482;BME280;5288;42.334;23.876;2023-04-25T11:47:34;55998.06;;;-140.56;35.80
10482;BME280;5288;42.334;23.876;2023-04-25T11:50:01;56051.41;;;-140.56;35.74
10482;BME280;5288;42.334;23.876;2023-04-25T11:52:37;56047.47;;;-140.56;37.97
10482;BME280;5288;42.334;23.876;2023-04-25T11:55:05;56049.44;;;-140.56;38.70
10482;BME280;5288;42.334;23.876;2023-04-25T11:57:33;56067.22;;;-140.56;38.58
10482;BME280;5288;42.334;23.876;2023-04-25T12:00:08;56069.22;;;-140.56;38.13
10482;BME280;5288;42.334;23.876;2023-04-25T12:02:45;56098.84;;;-140.56;38.31
10482;BME280;5288;42.334;23.876;2023-04-25T12:05:14;56138.38;;;-140.56;40.27
10482;BME280;5288;42.334;23.876;2023-04-25T12:07:42;56077.09;;;-140.56;39.77
10482;BME280;5288;42.334;23.876;2023-04-25T12:10:11;56090.94;;;-140.56;40.01
10482;BME280;5288;42.334;23.876;2023-04-25T12:12:42;56085.00;;;-140.56;39.67
10482;BME280;5288;42.334;23.876;2023-04-25T12:15:12;56075.13;;;-140.56;39.43
10482;BME280;5288;42.334;23.876;2023-04-25T12:17:41;56071.19;;;-140.56;39.64
10482;BME280;5288;42.334;23.876;2023-04-25T12:20:10;56071.19;;;-140.56;39.09
10482;BME280;5288;42.334;23.876;2023-04-25T12:22:40;56053.41;;;-140.56;38.90
10482;BME280;5288;42.334;23.876;2023-04-25T12:25:10;56033.63;;;-140.56;38.50
10482;BME280;5288;42.334;23.876;2023-04-25T12:27:37;56021.78;;;-140.56;38.46
10482;BME280;5288;42.334;23.876;2023-04-25T12:30:06;56039.56;;;-140.56;40.08
10482;BME280;5288;42.334;23.876;2023-04-25T12:32:35;56031.66;;;-140.56;36.84
10482;BME280;5288;42.334;23.876;2023-04-25T12:35:03;56079.09;;;-140.56;37.68
10482;BME280;5288;42.334;23.876;2023-04-25T12:37:30;56037.59;;;-140.56;38.87
10482;BME280;5288;42.334;23.876;2023-04-25T12:39:57;56043.50;;;-140.56;39.30
10482;BME280;5288;42.334;23.876;2023-04-25T12:42:24;56069.22;;;-140.56;38.94
10482;BME280;5288;42.334;23.876;2023-04-25T12:44:52;56112.69;;;-140.56;41.20